createdAt,value
2018-07-10T00:00:07.346Z,21.67
2018-07-10T00:03:19.709Z,21.62
2018-07-10T00:08:33.599Z,21.55
2018-07-10T00:11:26.440Z,21.48
2018-07-10T00:13:54.333Z,21.48
2018-07-10T00:16:22.507Z,21.48
2018-07-10T00:18:50.393Z,21.46
2018-07-10T00:21:18.646Z,21.39
2018-07-10T00:23:47.017Z,21.31
2018-07-10T00:26:14.737Z,21.30
2018-07-10T00:28:42.966Z,21.23
2018-07-10T00:31:10.714Z,21.17
2018-07-10T00:33:38.490Z,21.11
2018-07-10T00:36:06.218Z,21.07
2018-07-10T00:38:51.386Z,20.98
2018-07-10T00:41:25.775Z,20.92
2018-07-10T00:43:53.866Z,20.87
2018-07-10T00:46:22.374Z,20.84
2018-07-10T00:48:50.390Z,20.81
2018-07-10T00:51:18.563Z,20.77
2018-07-10T00:53:46.234Z,20.70
2018-07-10T00:56:14.146Z,20.69
2018-07-10T00:58:41.834Z,20.66
2018-07-10T01:01:09.555Z,20.64
2018-07-10T01:03:37.391Z,20.57
2018-07-10T01:06:05.029Z,20.46
2018-07-10T01:08:32.779Z,20.34
2018-07-10T01:11:08.019Z,20.39
2018-07-10T01:13:35.942Z,20.38
2018-07-10T01:16:03.783Z,20.31
2018-07-10T01:18:41.275Z,20.27
2018-07-10T01:21:15.226Z,20.22
2018-07-10T01:23:43.098Z,20.26
2018-07-10T01:26:12.653Z,20.19
2018-07-10T01:28:41.175Z,20.18
2018-07-10T01:31:08.911Z,20.14
2018-07-10T01:33:36.629Z,20.15
2018-07-10T01:36:06.026Z,20.13
2018-07-10T01:38:34.809Z,20.06
2018-07-10T01:41:02.562Z,19.90
2018-07-10T01:43:30.522Z,19.90
2018-07-10T01:45:58.240Z,19.89
2018-07-10T01:48:26.014Z,19.86
2018-07-10T01:50:53.998Z,19.87
2018-07-10T01:53:21.893Z,19.82
2018-07-10T01:55:49.678Z,19.83
2018-07-10T01:58:18.097Z,19.78
2018-07-10T02:00:46.394Z,19.73
2018-07-10T02:03:14.150Z,19.75
2018-07-10T02:05:42.340Z,19.74
2018-07-10T02:08:10.194Z,19.71
2018-07-10T02:10:37.885Z,19.68
2018-07-10T02:13:05.736Z,19.63
2018-07-10T02:15:33.647Z,19.65
2018-07-10T02:18:01.374Z,19.62
2018-07-10T02:20:53.182Z,19.58
2018-07-10T02:23:21.643Z,19.56
2018-07-10T02:25:49.850Z,19.53
2018-07-10T02:28:18.035Z,19.55
2018-07-10T02:30:46.076Z,19.49
2018-07-10T02:33:13.818Z,19.55
2018-07-10T02:35:41.651Z,19.58
2018-07-10T02:38:09.670Z,19.54
2018-07-10T02:40:37.452Z,19.50
2018-07-10T02:43:05.289Z,19.51
2018-07-10T02:45:33.295Z,19.44
2018-07-10T02:48:01.021Z,19.35
2018-07-10T02:50:30.301Z,19.34
2018-07-10T02:52:58.340Z,19.28
2018-07-10T02:55:26.071Z,19.23
2018-07-10T02:57:53.787Z,19.12
2018-07-10T03:00:21.659Z,19.12
2018-07-10T03:02:50.374Z,19.15
2018-07-10T03:05:19.603Z,19.11
2018-07-10T03:07:47.676Z,19.08
2018-07-10T03:10:34.739Z,19.06
2018-07-10T03:13:02.497Z,19.06
2018-07-10T03:15:30.592Z,19.05
2018-07-10T03:17:59.069Z,19.04
2018-07-10T03:20:26.999Z,19.03
2018-07-10T03:22:54.707Z,19.01
2018-07-10T03:25:22.430Z,18.99
2018-07-10T03:27:50.420Z,18.95
2018-07-10T03:30:18.123Z,18.90
2018-07-10T03:32:45.926Z,18.85
2018-07-10T03:35:13.910Z,18.81
2018-07-10T03:37:42.122Z,18.74
2018-07-10T03:40:10.326Z,18.67
2018-07-10T03:42:38.054Z,18.67
2018-07-10T03:45:05.779Z,18.63
2018-07-10T03:47:33.510Z,18.57
2018-07-10T03:50:01.296Z,18.55
2018-07-10T03:52:34.405Z,18.59
2018-07-10T03:55:06.678Z,18.55
2018-07-10T03:57:34.520Z,18.53
2018-07-10T04:00:06.738Z,18.57
2018-07-10T04:02:35.364Z,18.59
2018-07-10T04:05:03.281Z,18.44
2018-07-10T04:07:32.082Z,18.51
2018-07-10T04:12:49.141Z,18.59
2018-07-10T04:15:17.454Z,18.63
2018-07-10T04:18:03.248Z,18.62
2018-07-10T04:20:43.367Z,18.55
2018-07-10T04:23:11.050Z,18.60
2018-07-10T04:25:38.839Z,18.61
2018-07-10T04:28:14.243Z,18.60
2018-07-10T04:30:55.019Z,18.59
2018-07-10T04:33:22.729Z,18.52
2018-07-10T04:35:50.834Z,18.61
2018-07-10T04:38:23.751Z,18.63
2018-07-10T04:40:51.482Z,18.66
2018-07-10T04:43:20.457Z,18.68
2018-07-10T04:45:55.082Z,18.70
2018-07-10T04:48:44.318Z,18.70
2018-07-10T04:51:33.984Z,18.65
2018-07-10T04:54:44.748Z,18.54
2018-07-10T04:57:16.220Z,18.70
2018-07-10T04:59:44.374Z,18.77
2018-07-10T05:02:13.391Z,18.87
2018-07-10T05:04:41.177Z,18.64
2018-07-10T05:07:10.039Z,18.39
2018-07-10T05:09:38.435Z,18.40
2018-07-10T05:12:07.278Z,18.69
2018-07-10T05:14:36.715Z,18.71
2018-07-10T05:17:04.417Z,18.88
2018-07-10T05:19:32.158Z,19.07
2018-07-10T05:21:59.845Z,19.08
2018-07-10T05:24:27.640Z,19.14
2018-07-10T05:26:56.377Z,18.96
2018-07-10T05:29:24.423Z,19.18
2018-07-10T05:31:52.518Z,19.20
2018-07-10T05:34:21.019Z,19.39
2018-07-10T05:36:49.485Z,19.47
2018-07-10T05:39:17.242Z,19.46
2018-07-10T05:41:46.642Z,19.67
2018-07-10T05:44:19.540Z,19.43
2018-07-10T05:46:47.635Z,19.59
2018-07-10T05:49:16.054Z,19.50
2018-07-10T05:51:47.662Z,19.52
2018-07-10T05:54:15.361Z,19.65
2018-07-10T05:56:43.147Z,19.80
2018-07-10T05:59:11.328Z,19.73
2018-07-10T06:01:39.961Z,19.87
2018-07-10T06:04:09.866Z,20.21
2018-07-10T06:06:37.694Z,20.13
2018-07-10T06:09:06.189Z,20.06
2018-07-10T06:11:35.591Z,19.58
2018-07-10T06:14:03.434Z,19.89
2018-07-10T06:16:31.392Z,20.12
2018-07-10T06:18:59.106Z,20.32
2018-07-10T06:21:37.663Z,20.44
2018-07-10T06:24:14.129Z,20.54
2018-07-10T06:26:42.779Z,20.39
2018-07-10T06:29:16.946Z,20.40
2018-07-10T06:31:51.355Z,20.52
2018-07-10T06:34:26.450Z,20.51
2018-07-10T06:37:04.676Z,20.61
2018-07-10T06:39:32.362Z,20.66
2018-07-10T06:42:03.618Z,20.65
2018-07-10T06:44:34.454Z,20.64
2018-07-10T06:47:03.893Z,20.67
2018-07-10T06:49:35.508Z,20.62
2018-07-10T06:52:10.452Z,20.89
2018-07-10T06:55:08.156Z,20.92
2018-07-10T06:57:48.938Z,20.92
2018-07-10T07:00:16.750Z,21.17
2018-07-10T07:02:44.450Z,21.39
2018-07-10T07:05:12.150Z,21.66
2018-07-10T07:07:40.462Z,21.99
2018-07-10T07:10:34.019Z,22.09
2018-07-10T07:13:01.968Z,21.83
2018-07-10T07:15:29.737Z,21.52
2018-07-10T07:17:57.542Z,21.71
2018-07-10T07:20:25.234Z,22.03
2018-07-10T07:22:53.403Z,22.38
2018-07-10T07:25:21.105Z,22.50
2018-07-10T07:27:49.171Z,22.42
2018-07-10T07:30:16.992Z,22.59
2018-07-10T07:32:44.699Z,22.79
2018-07-10T07:35:12.489Z,22.96
2018-07-10T07:37:41.037Z,23.11
2018-07-10T07:40:10.377Z,23.05
2018-07-10T07:42:38.491Z,22.87
2018-07-10T07:45:06.440Z,23.07
2018-07-10T07:47:34.197Z,23.29
2018-07-10T07:50:01.966Z,23.67
2018-07-10T07:52:30.723Z,24.04
2018-07-10T07:54:59.874Z,24.67
2018-07-10T07:57:27.603Z,25.08
2018-07-10T07:59:55.325Z,25.25
2018-07-10T08:02:23.495Z,25.37
2018-07-10T08:04:51.564Z,24.78
2018-07-10T08:07:20.486Z,24.98
2018-07-10T08:09:48.926Z,25.00
2018-07-10T08:12:16.671Z,25.19
2018-07-10T08:14:44.962Z,25.14
2018-07-10T08:17:12.971Z,25.27
2018-07-10T08:19:42.014Z,25.25
2018-07-10T08:22:09.753Z,25.08
2018-07-10T08:24:37.559Z,25.15
2018-07-10T08:27:05.181Z,25.34
2018-07-10T08:29:32.849Z,25.68
2018-07-10T08:32:00.545Z,26.11
2018-07-10T08:34:29.302Z,26.02
2018-07-10T08:36:56.981Z,26.39
2018-07-10T08:39:25.039Z,26.82
2018-07-10T08:41:52.808Z,27.10
2018-07-10T08:44:20.770Z,27.12
2018-07-10T08:46:54.007Z,26.76
2018-07-10T08:49:25.336Z,26.62
2018-07-10T08:51:53.061Z,26.76
2018-07-10T08:54:22.805Z,26.95
2018-07-10T08:56:51.322Z,27.43
2018-07-10T08:59:19.346Z,27.47
2018-07-10T09:01:47.603Z,27.62
2018-07-10T09:04:16.440Z,27.70
2018-07-10T09:06:44.293Z,28.01
2018-07-10T09:09:12.042Z,27.63
2018-07-10T09:11:40.574Z,27.50
2018-07-10T09:14:08.483Z,27.25
2018-07-10T09:16:36.207Z,27.43
2018-07-10T09:19:05.322Z,27.36
2018-07-10T09:21:33.009Z,27.17
2018-07-10T09:24:00.714Z,27.12
2018-07-10T09:26:28.422Z,27.21
2018-07-10T09:28:56.518Z,27.46
2018-07-10T09:31:24.215Z,27.39
2018-07-10T09:33:52.008Z,27.53
2018-07-10T09:36:19.663Z,27.50
2018-07-10T09:38:47.386Z,27.81
2018-07-10T09:41:15.120Z,28.14
2018-07-10T09:43:44.398Z,28.52
2018-07-10T09:46:12.384Z,28.58
2018-07-10T09:48:40.079Z,28.60
2018-07-10T09:51:07.847Z,28.67
2018-07-10T09:53:35.606Z,28.45
2018-07-10T09:56:03.294Z,28.25
2018-07-10T09:58:31.926Z,27.96
2018-07-10T10:01:08.247Z,28.59
2018-07-10T10:03:36.826Z,28.46
2018-07-10T10:06:05.290Z,28.59
2018-07-10T10:08:33.028Z,28.37
2018-07-10T10:11:00.829Z,27.97
2018-07-10T10:13:28.569Z,27.36
2018-07-10T10:15:56.256Z,27.23
2018-07-10T10:18:24.134Z,27.10
2018-07-10T10:20:52.609Z,27.39
2018-07-10T10:23:20.314Z,27.67
2018-07-10T10:25:49.217Z,27.74
2018-07-10T10:28:17.658Z,27.25
2018-07-10T10:30:45.386Z,27.35
2018-07-10T10:33:13.082Z,27.23
2018-07-10T10:35:40.885Z,27.06
2018-07-10T10:38:08.634Z,27.05
2018-07-10T10:40:38.665Z,27.38
2018-07-10T10:43:09.115Z,27.59
2018-07-10T10:45:40.674Z,27.47
2018-07-10T10:48:09.096Z,27.46
2018-07-10T10:50:38.608Z,26.99
2018-07-10T10:53:06.778Z,27.10
2018-07-10T10:55:35.109Z,27.29
2018-07-10T10:58:03.270Z,27.28
2018-07-10T11:00:31.318Z,27.28
2018-07-10T11:02:59.142Z,27.05
2018-07-10T11:05:28.005Z,27.09
2018-07-10T11:07:56.233Z,27.18
2018-07-10T11:10:34.717Z,27.14
2018-07-10T11:13:02.558Z,27.77
2018-07-10T11:15:35.071Z,28.08
2018-07-10T11:18:06.978Z,28.11
2018-07-10T11:21:06.782Z,28.13
2018-07-10T11:23:47.338Z,27.75
2018-07-10T11:26:39.688Z,27.54
2018-07-10T11:29:07.691Z,27.12
2018-07-10T11:31:36.043Z,26.90
2018-07-10T11:34:04.319Z,26.79
2018-07-10T11:36:32.022Z,26.84
2018-07-10T11:39:03.996Z,26.77
2018-07-10T11:41:32.130Z,26.80
2018-07-10T11:44:04.903Z,26.70
2018-07-10T11:46:32.642Z,26.64
2018-07-10T11:49:00.862Z,26.56
2018-07-10T11:51:29.304Z,26.83
2018-07-10T11:53:57.033Z,26.79
2018-07-10T11:56:24.749Z,26.77
2018-07-10T11:58:52.515Z,26.90
2018-07-10T12:01:20.217Z,26.92
2018-07-10T12:03:48.181Z,26.85
2018-07-10T12:06:15.903Z,26.81
2018-07-10T12:08:54.705Z,27.02
2018-07-10T12:11:26.974Z,27.06
2018-07-10T12:13:54.715Z,26.82
2018-07-10T12:16:22.430Z,26.67
2018-07-10T12:18:50.139Z,26.99
2018-07-10T12:21:19.166Z,26.78
2018-07-10T12:23:46.922Z,26.83
2018-07-10T12:26:14.671Z,27.04
2018-07-10T12:28:42.433Z,27.21
2018-07-10T12:31:10.230Z,27.19
2018-07-10T12:33:37.998Z,27.08
2018-07-10T12:36:06.215Z,27.04
2018-07-10T12:38:34.013Z,26.85
2018-07-10T12:41:01.840Z,27.11
2018-07-10T12:43:29.554Z,27.45
2018-07-10T12:45:57.330Z,28.03
2018-07-10T12:48:25.105Z,28.44
2018-07-10T12:50:52.831Z,28.06
2018-07-10T12:53:20.516Z,28.07
2018-07-10T12:55:48.299Z,28.00
2018-07-10T12:58:17.519Z,28.35
2018-07-10T13:00:45.202Z,28.44
2018-07-10T13:03:14.459Z,28.09
2018-07-10T13:05:49.580Z,27.90
2018-07-10T13:08:17.887Z,27.64
2018-07-10T13:10:45.856Z,27.52
2018-07-10T13:13:13.962Z,27.51
2018-07-10T13:15:41.773Z,27.94
2018-07-10T13:18:09.552Z,27.90
2018-07-10T13:20:37.433Z,27.56
2018-07-10T13:23:05.199Z,27.26
2018-07-10T13:25:33.011Z,27.34
2018-07-10T13:28:00.682Z,27.67
2018-07-10T13:30:28.690Z,28.06
2018-07-10T13:32:56.419Z,27.70
2018-07-10T13:35:24.298Z,27.68
2018-07-10T13:37:52.294Z,27.65
2018-07-10T13:40:20.114Z,27.65
2018-07-10T13:42:56.118Z,27.85
2018-07-10T13:45:25.022Z,27.92
2018-07-10T13:47:52.851Z,28.35
2018-07-10T13:50:23.659Z,28.58
2018-07-10T13:52:52.149Z,28.63
2018-07-10T13:55:19.864Z,28.62
2018-07-10T13:58:12.814Z,28.37
2018-07-10T14:01:05.002Z,28.37
2018-07-10T14:03:33.115Z,28.15
2018-07-10T14:06:01.003Z,28.31
2018-07-10T14:08:29.069Z,27.87
2018-07-10T14:10:56.794Z,27.81
2018-07-10T14:13:24.595Z,27.79
2018-07-10T14:15:52.313Z,27.84
2018-07-10T14:18:20.078Z,27.89
2018-07-10T14:20:52.449Z,28.06
2018-07-10T14:23:20.427Z,28.02
2018-07-10T14:25:48.671Z,28.01
2018-07-10T14:28:16.473Z,28.08
2018-07-10T14:30:44.150Z,27.88
2018-07-10T14:33:11.854Z,28.15
2018-07-10T14:35:39.537Z,28.36
2018-07-10T14:38:09.182Z,28.07
2018-07-10T14:40:41.041Z,28.03
2018-07-10T14:43:08.802Z,27.88
2018-07-10T14:45:37.610Z,27.92
2018-07-10T14:48:06.101Z,27.83
2018-07-10T14:50:34.070Z,27.72
2018-07-10T14:53:02.399Z,27.57
2018-07-10T14:55:30.070Z,27.64
2018-07-10T14:57:57.826Z,27.60
2018-07-10T15:00:25.703Z,27.54
2018-07-10T15:02:53.394Z,27.58
2018-07-10T15:05:21.185Z,27.53
2018-07-10T15:07:48.933Z,27.87
2018-07-10T15:10:33.874Z,27.86
2018-07-10T15:13:01.570Z,27.70
2018-07-10T15:15:29.331Z,27.68
2018-07-10T15:18:03.062Z,27.88
2018-07-10T15:20:30.759Z,27.78
2018-07-10T15:23:00.283Z,27.92
2018-07-10T15:25:28.061Z,27.98
2018-07-10T15:30:30.319Z,27.80
2018-07-10T15:32:58.893Z,27.28
2018-07-10T15:35:27.249Z,27.53
2018-07-10T15:37:55.186Z,27.37
2018-07-10T15:40:22.936Z,27.29
2018-07-10T15:42:50.787Z,27.02
2018-07-10T15:45:18.589Z,26.81
2018-07-10T15:47:46.267Z,26.97
2018-07-10T15:50:13.969Z,27.09
2018-07-10T15:52:41.744Z,27.11
2018-07-10T15:55:09.429Z,27.14
2018-07-10T15:57:37.134Z,27.18
2018-07-10T16:00:04.929Z,27.06
2018-07-10T16:02:32.655Z,26.69
2018-07-10T16:05:00.396Z,26.74
2018-07-10T16:07:28.474Z,26.93
2018-07-10T16:09:56.207Z,26.75
2018-07-10T16:12:24.135Z,26.52
2018-07-10T16:14:52.734Z,26.57
2018-07-10T16:17:23.641Z,26.54
2018-07-10T16:20:01.990Z,26.44
2018-07-10T16:22:30.007Z,26.57
2018-07-10T16:25:05.295Z,26.58
2018-07-10T16:27:36.763Z,26.13
2018-07-10T16:30:05.043Z,26.23
2018-07-10T16:32:35.637Z,26.22
2018-07-10T16:35:03.387Z,26.27
2018-07-10T16:37:31.103Z,26.35
2018-07-10T16:39:58.969Z,26.12
2018-07-10T16:42:32.567Z,26.26
2018-07-10T16:45:00.366Z,26.13
2018-07-10T16:47:34.070Z,26.19
2018-07-10T16:50:05.620Z,26.18
2018-07-10T16:52:38.226Z,26.07
2018-07-10T16:55:05.942Z,25.95
2018-07-10T16:57:33.908Z,25.89
2018-07-10T17:00:01.600Z,25.82
2018-07-10T17:02:29.298Z,25.77
2018-07-10T17:04:57.622Z,25.74
2018-07-10T17:07:25.391Z,25.79
2018-07-10T17:09:53.138Z,26.02
2018-07-10T17:12:21.389Z,25.87
2018-07-10T17:14:58.874Z,25.71
2018-07-10T17:17:27.555Z,25.71
2018-07-10T17:19:55.626Z,25.57
2018-07-10T17:22:23.907Z,25.43
2018-07-10T17:24:52.389Z,25.46
2018-07-10T17:27:33.127Z,25.09
2018-07-10T17:30:02.071Z,24.87
2018-07-10T17:32:30.490Z,24.93
2018-07-10T17:34:58.599Z,24.89
2018-07-10T17:37:26.523Z,24.98
2018-07-10T17:39:55.637Z,24.92
2018-07-10T17:42:23.345Z,24.90
2018-07-10T17:44:51.064Z,24.84
2018-07-10T17:47:18.966Z,24.78
2018-07-10T17:49:46.666Z,24.70
2018-07-10T17:52:14.413Z,24.51
2018-07-10T17:54:42.095Z,24.32
2018-07-10T17:57:09.782Z,24.49
2018-07-10T17:59:38.997Z,24.45
2018-07-10T18:02:06.798Z,24.54
2018-07-10T18:04:34.489Z,24.46
2018-07-10T18:07:02.190Z,24.53
2018-07-10T18:09:29.887Z,24.41
2018-07-10T18:11:57.621Z,24.39
2018-07-10T18:14:25.527Z,24.30
2018-07-10T18:16:53.356Z,24.20
2018-07-10T18:19:21.853Z,24.00
2018-07-10T18:21:49.569Z,23.91
2018-07-10T18:24:17.499Z,23.82
2018-07-10T18:26:45.192Z,23.81
2018-07-10T18:29:12.884Z,23.81
2018-07-10T18:31:40.659Z,23.81
2018-07-10T18:34:08.366Z,23.61
2018-07-10T18:36:36.091Z,23.57
2018-07-10T18:39:03.901Z,23.43
2018-07-10T18:41:31.690Z,23.40
2018-07-10T18:43:59.909Z,23.39
2018-07-10T18:46:28.162Z,23.49
2018-07-10T18:48:55.955Z,23.35
2018-07-10T18:51:24.463Z,23.20
2018-07-10T18:53:52.574Z,23.16
2018-07-10T18:56:21.342Z,23.08
2018-07-10T18:59:10.329Z,23.02
2018-07-10T19:02:13.386Z,22.94
2018-07-10T19:04:56.542Z,22.86
2018-07-10T19:07:24.282Z,22.71
2018-07-10T19:09:52.013Z,22.68
2018-07-10T19:12:23.515Z,22.64
2018-07-10T19:14:51.310Z,22.55
2018-07-10T19:17:26.274Z,22.47
2018-07-10T19:20:05.497Z,22.37
2018-07-10T19:23:14.811Z,22.33
2018-07-10T19:25:42.649Z,22.24
2018-07-10T19:28:11.588Z,22.14
2018-07-10T19:30:47.646Z,22.09
2018-07-10T19:33:15.507Z,22.00
2018-07-10T19:35:43.385Z,21.98
2018-07-10T19:38:11.311Z,22.02
2018-07-10T19:40:39.139Z,21.99
2018-07-10T19:43:07.067Z,21.91
2018-07-10T19:45:35.558Z,21.85
2018-07-10T19:48:04.649Z,21.79
2018-07-10T19:50:38.750Z,21.76
2018-07-10T19:53:06.654Z,21.71
2018-07-10T19:55:38.199Z,21.62
2018-07-10T19:58:47.566Z,21.56
2018-07-10T20:02:01.697Z,21.51
2018-07-10T20:04:40.208Z,21.35
2018-07-10T20:07:11.861Z,21.34
2018-07-10T20:10:56.864Z,21.27
2018-07-10T20:13:46.294Z,21.12
2018-07-10T20:16:57.567Z,21.07
2018-07-10T20:19:45.968Z,20.99
2018-07-10T20:22:17.767Z,20.94
2018-07-10T20:24:56.905Z,20.90
2018-07-10T20:27:37.017Z,20.84
2018-07-10T20:30:28.200Z,20.78
2018-07-10T20:33:12.575Z,20.69
2018-07-10T20:35:46.651Z,20.65
2018-07-10T20:38:14.679Z,20.62
2018-07-10T20:40:43.507Z,20.52
2018-07-10T20:43:15.638Z,20.44
2018-07-10T20:45:48.168Z,20.41
2018-07-10T20:48:32.302Z,20.43
2018-07-10T20:51:06.953Z,20.39
2018-07-10T20:54:49.566Z,20.36
2018-07-10T20:58:22.555Z,20.35
2018-07-10T21:01:02.050Z,20.30
2018-07-10T21:03:55.441Z,20.25
2018-07-10T21:07:03.537Z,20.22
2018-07-10T21:09:48.794Z,20.14
2018-07-10T21:12:22.274Z,20.14
2018-07-10T21:15:06.605Z,20.16
2018-07-10T21:18:40.846Z,20.12
2018-07-10T21:21:23.633Z,20.09
2018-07-10T21:24:03.766Z,20.12
2018-07-10T21:26:42.087Z,20.02
2018-07-10T21:29:27.027Z,20.00
2018-07-10T21:32:03.482Z,19.99
2018-07-10T21:34:43.486Z,19.92
2018-07-10T21:38:26.806Z,19.92
2018-07-10T21:41:08.594Z,19.86
2018-07-10T21:43:50.838Z,19.81
2018-07-10T21:49:26.601Z,19.68
2018-07-10T21:51:54.291Z,19.57
2018-07-10T21:54:22.007Z,19.54
2018-07-10T21:56:49.725Z,19.52
2018-07-10T21:59:19.424Z,19.48
2018-07-10T22:02:10.779Z,19.48
2018-07-10T22:04:39.302Z,19.42
2018-07-10T22:07:11.126Z,19.43
2018-07-10T22:09:39.655Z,19.38
2018-07-10T22:12:11.465Z,19.35
2018-07-10T22:14:40.007Z,19.29
2018-07-10T22:17:20.991Z,19.23
2018-07-10T22:19:50.621Z,19.13
2018-07-10T22:22:21.954Z,19.11
2018-07-10T22:24:50.731Z,19.10
2018-07-10T22:27:18.980Z,19.00
2018-07-10T22:29:52.778Z,19.00
2018-07-10T22:32:29.027Z,18.91
2018-07-10T22:34:56.794Z,18.91
2018-07-10T22:37:24.581Z,18.93
2018-07-10T22:39:52.264Z,18.88
2018-07-10T22:42:19.966Z,18.82
2018-07-10T22:44:50.033Z,18.74
2018-07-10T22:47:41.190Z,18.72
2018-07-10T22:50:19.582Z,18.68
2018-07-10T22:52:54.253Z,18.59
2018-07-10T22:55:26.629Z,18.57
2018-07-10T22:57:58.082Z,18.51
2018-07-10T23:00:30.659Z,18.46
2018-07-10T23:02:59.131Z,18.44
2018-07-10T23:05:27.199Z,18.35
2018-07-10T23:07:54.903Z,18.24
2018-07-10T23:10:34.077Z,18.17
2018-07-10T23:13:01.766Z,18.09
2018-07-10T23:15:29.486Z,18.05
2018-07-10T23:17:57.177Z,17.98
2018-07-10T23:20:24.959Z,17.92
2018-07-10T23:22:54.625Z,17.89
2018-07-10T23:25:24.331Z,17.79
2018-07-10T23:27:56.766Z,17.76
2018-07-10T23:30:25.286Z,17.67
2018-07-10T23:32:53.549Z,17.62
2018-07-10T23:35:21.215Z,17.55
2018-07-10T23:37:55.654Z,17.52
2018-07-10T23:40:23.377Z,17.45
2018-07-10T23:42:52.254Z,17.43
2018-07-10T23:45:26.343Z,17.44
2018-07-10T23:47:56.886Z,17.42
2018-07-10T23:50:27.391Z,17.42
2018-07-10T23:53:44.695Z,17.40
2018-07-10T23:56:12.397Z,17.39
2018-07-10T23:58:40.198Z,17.40
